sensor_id;sensor_type;location;lat;lon;timestamp;temperature;humidity
58469;DHT22;44257;44.804;10.220;2023-02-15T00:00:31;5.30;99.90
58469;DHT22;44257;44.804;10.220;2023-02-15T00:02:56;5.30;99.90
58469;DHT22;44257;44.804;10.220;2023-02-15T00:05:23;5.30;99.90
58469;DHT22;44257;44.804;10.220;2023-02-15T00:07:48;5.30;99.90
58469;DHT22;44257;44.804;10.220;2023-02-15T00:10:17;5.30;99.90
58469;DHT22;44257;44.804;10.220;2023-02-15T00:12:44;5.40;99.90
58469;DHT22;44257;44.804;10.220;2023-02-15T00:17:49;5.40;99.90
58469;DHT22;44257;44.804;10.220;2023-02-15T00:20:18;5.40;99.90
58469;DHT22;44257;44.804;10.220;2023-02-15T00:22:44;5.40;99.90
58469;DHT22;44257;44.804;10.220;2023-02-15T00:25:21;5.30;99.90
58469;DHT22;44257;44.804;10.220;2023-02-15T00:27:47;5.30;99.90
58469;DHT22;44257;44.804;10.220;2023-02-15T00:30:13;5.20;99.90
58469;DHT22;44257;44.804;10.220;2023-02-15T00:32:39;5.20;99.90
58469;DHT22;44257;44.804;10.220;2023-02-15T00:37:51;5.20;99.90
58469;DHT22;44257;44.804;10.220;2023-02-15T00:40:23;5.20;99.90
58469;DHT22;44257;44.804;10.220;2023-02-15T00:42:51;5.20;99.90
58469;DHT22;44257;44.804;10.220;2023-02-15T00:45:22;5.20;99.90
58469;DHT22;44257;44.804;10.220;2023-02-15T00:48:32;5.20;99.90
58469;DHT22;44257;44.804;10.220;2023-02-15T00:50:59;5.10;99.90
58469;DHT22;44257;44.804;10.220;2023-02-15T00:53:28;5.10;99.90
58469;DHT22;44257;44.804;10.220;2023-02-15T00:56:03;5.10;99.90
58469;DHT22;44257;44.804;10.220;2023-02-15T00:58:32;5.10;99.90
58469;DHT22;44257;44.804;10.220;2023-02-15T01:01:33;5.10;99.90
58469;DHT22;44257;44.804;10.220;2023-02-15T01:03:56;5.10;99.90
58469;DHT22;44257;44.804;10.220;2023-02-15T01:06:22;5.10;99.90
58469;DHT22;44257;44.804;10.220;2023-02-15T01:08:50;5.10;99.90
58469;DHT22;44257;44.804;10.220;2023-02-15T01:11:21;5.00;99.90
58469;DHT22;44257;44.804;10.220;2023-02-15T01:13:52;5.00;99.90
58469;DHT22;44257;44.804;10.220;2023-02-15T01:16:19;4.90;99.90
58469;DHT22;44257;44.804;10.220;2023-02-15T01:18:47;4.80;99.90
58469;DHT22;44257;44.804;10.220;2023-02-15T01:21:18;4.80;99.90
58469;DHT22;44257;44.804;10.220;2023-02-15T01:23:44;4.70;99.90
58469;DHT22;44257;44.804;10.220;2023-02-15T01:29:35;4.80;99.90
58469;DHT22;44257;44.804;10.220;2023-02-15T01:32:01;4.80;99.90
58469;DHT22;44257;44.804;10.220;2023-02-15T01:34:51;4.80;99.90
58469;DHT22;44257;44.804;10.220;2023-02-15T01:37:31;4.80;99.90
58469;DHT22;44257;44.804;10.220;2023-02-15T01:39:57;4.80;99.90
58469;DHT22;44257;44.804;10.220;2023-02-15T01:42:27;4.80;99.90
58469;DHT22;44257;44.804;10.220;2023-02-15T01:45:06;4.90;99.90
58469;DHT22;44257;44.804;10.220;2023-02-15T01:47:44;4.90;99.90
58469;DHT22;44257;44.804;10.220;2023-02-15T01:50:36;4.90;99.90
58469;DHT22;44257;44.804;10.220;2023-02-15T01:56:48;4.80;99.90
58469;DHT22;44257;44.804;10.220;2023-02-15T01:59:40;4.80;99.90
58469;DHT22;44257;44.804;10.220;2023-02-15T02:02:25;4.80;99.90
58469;DHT22;44257;44.804;10.220;2023-02-15T02:04:59;4.80;99.90
58469;DHT22;44257;44.804;10.220;2023-02-15T02:07:33;4.80;99.90
58469;DHT22;44257;44.804;10.220;2023-02-15T02:10:02;4.70;99.90
58469;DHT22;44257;44.804;10.220;2023-02-15T02:12:28;4.80;99.90
58469;DHT22;44257;44.804;10.220;2023-02-15T02:14:55;4.70;99.90
58469;DHT22;44257;44.804;10.220;2023-02-15T02:17:35;4.70;99.90
58469;DHT22;44257;44.804;10.220;2023-02-15T02:23:23;4.70;99.90
58469;DHT22;44257;44.804;10.220;2023-02-15T02:27:03;4.70;99.90
58469;DHT22;44257;44.804;10.220;2023-02-15T02:32:28;4.80;99.90
58469;DHT22;44257;44.804;10.220;2023-02-15T02:35:11;4.80;99.90
58469;DHT22;44257;44.804;10.220;2023-02-15T02:38:03;4.80;99.90
58469;DHT22;44257;44.804;10.220;2023-02-15T02:43:48;4.80;99.90
58469;DHT22;44257;44.804;10.220;2023-02-15T02:46:24;4.70;99.90
58469;DHT22;44257;44.804;10.220;2023-02-15T02:48:52;4.60;99.90
58469;DHT22;44257;44.804;10.220;2023-02-15T02:51:18;4.50;99.90
58469;DHT22;44257;44.804;10.220;2023-02-15T02:53:51;4.50;99.90
58469;DHT22;44257;44.804;10.220;2023-02-15T02:56:29;4.40;99.90
58469;DHT22;44257;44.804;10.220;2023-02-15T02:59:18;4.40;99.90
58469;DHT22;44257;44.804;10.220;2023-02-15T03:01:54;4.30;99.90
58469;DHT22;44257;44.804;10.220;2023-02-15T03:04:31;4.30;99.90
58469;DHT22;44257;44.804;10.220;2023-02-15T03:07:01;4.30;99.90
58469;DHT22;44257;44.804;10.220;2023-02-15T03:09:37;4.30;99.90
58469;DHT22;44257;44.804;10.220;2023-02-15T03:12:29;4.20;99.90
58469;DHT22;44257;44.804;10.220;2023-02-15T03:15:13;4.10;99.90
58469;DHT22;44257;44.804;10.220;2023-02-15T03:17:44;4.00;99.90
58469;DHT22;44257;44.804;10.220;2023-02-15T03:20:16;3.90;99.90
58469;DHT22;44257;44.804;10.220;2023-02-15T03:22:48;3.90;99.90
58469;DHT22;44257;44.804;10.220;2023-02-15T03:25:24;3.80;99.90
58469;DHT22;44257;44.804;10.220;2023-02-15T03:27:59;3.70;99.90
58469;DHT22;44257;44.804;10.220;2023-02-15T03:30:29;3.80;99.90
58469;DHT22;44257;44.804;10.220;2023-02-15T03:32:59;3.80;99.90
58469;DHT22;44257;44.804;10.220;2023-02-15T03:38:17;3.80;99.90
58469;DHT22;44257;44.804;10.220;2023-02-15T03:40:45;3.70;99.90
58469;DHT22;44257;44.804;10.220;2023-02-15T03:48:46;3.50;99.90
58469;DHT22;44257;44.804;10.220;2023-02-15T03:51:18;3.60;99.90
58469;DHT22;44257;44.804;10.220;2023-02-15T03:56:52;3.60;99.90
58469;DHT22;44257;44.804;10.220;2023-02-15T03:59:40;3.50;99.90
58469;DHT22;44257;44.804;10.220;2023-02-15T04:02:48;3.40;99.90
58469;DHT22;44257;44.804;10.220;2023-02-15T04:05:18;3.40;99.90
58469;DHT22;44257;44.804;10.220;2023-02-15T04:07:44;3.40;99.90
58469;DHT22;44257;44.804;10.220;2023-02-15T04:10:10;3.40;99.90
58469;DHT22;44257;44.804;10.220;2023-02-15T04:12:54;3.50;99.90
58469;DHT22;44257;44.804;10.220;2023-02-15T04:15:21;3.50;99.90
58469;DHT22;44257;44.804;10.220;2023-02-15T04:18:05;3.50;99.90
58469;DHT22;44257;44.804;10.220;2023-02-15T04:20:31;3.50;99.90
58469;DHT22;44257;44.804;10.220;2023-02-15T04:23:15;3.50;99.90
58469;DHT22;44257;44.804;10.220;2023-02-15T04:26:03;3.50;99.90
58469;DHT22;44257;44.804;10.220;2023-02-15T04:28:30;3.50;99.90
58469;DHT22;44257;44.804;10.220;2023-02-15T04:30:56;3.50;99.90
58469;DHT22;44257;44.804;10.220;2023-02-15T04:33:22;3.40;99.90
58469;DHT22;44257;44.804;10.220;2023-02-15T04:35:47;3.40;99.90
58469;DHT22;44257;44.804;10.220;2023-02-15T04:38:13;3.40;99.90
58469;DHT22;44257;44.804;10.220;2023-02-15T04:40:39;3.30;99.90
58469;DHT22;44257;44.804;10.220;2023-02-15T04:43:05;3.20;99.90
58469;DHT22;44257;44.804;10.220;2023-02-15T04:45:31;3.10;99.90
58469;DHT22;44257;44.804;10.220;2023-02-15T04:47:57;3.10;99.90
58469;DHT22;44257;44.804;10.220;2023-02-15T04:50:22;3.10;99.90
58469;DHT22;44257;44.804;10.220;2023-02-15T04:52:48;3.10;99.90
58469;DHT22;44257;44.804;10.220;2023-02-15T04:55:14;3.10;99.90
58469;DHT22;44257;44.804;10.220;2023-02-15T04:57:40;3.20;99.90
58469;DHT22;44257;44.804;10.220;2023-02-15T05:00:06;3.20;99.90
58469;DHT22;44257;44.804;10.220;2023-02-15T05:02:34;3.20;99.90
58469;DHT22;44257;44.804;10.220;2023-02-15T05:04:59;3.20;99.90
58469;DHT22;44257;44.804;10.220;2023-02-15T05:07:25;3.20;99.90
58469;DHT22;44257;44.804;10.220;2023-02-15T05:09:51;3.20;99.90
58469;DHT22;44257;44.804;10.220;2023-02-15T05:12:17;3.10;99.90
58469;DHT22;44257;44.804;10.220;2023-02-15T05:14:43;3.10;99.90
58469;DHT22;44257;44.804;10.220;2023-02-15T05:17:09;3.10;99.90
58469;DHT22;44257;44.804;10.220;2023-02-15T05:19:34;3.10;99.90
58469;DHT22;44257;44.804;10.220;2023-02-15T05:22:00;3.10;99.90
58469;DHT22;44257;44.804;10.220;2023-02-15T05:24:26;3.10;99.90
58469;DHT22;44257;44.804;10.220;2023-02-15T05:27:11;3.10;99.90
58469;DHT22;44257;44.804;10.220;2023-02-15T05:29:55;3.00;99.90
58469;DHT22;44257;44.804;10.220;2023-02-15T05:32:21;3.10;99.90
58469;DHT22;44257;44.804;10.220;2023-02-15T05:34:47;3.10;99.90
58469;DHT22;44257;44.804;10.220;2023-02-15T05:37:13;3.10;99.90
58469;DHT22;44257;44.804;10.220;2023-02-15T05:39:39;3.20;99.90
58469;DHT22;44257;44.804;10.220;2023-02-15T05:42:05;3.20;99.90
58469;DHT22;44257;44.804;10.220;2023-02-15T05:44:31;3.20;99.90
58469;DHT22;44257;44.804;10.220;2023-02-15T05:46:57;3.20;99.90
58469;DHT22;44257;44.804;10.220;2023-02-15T05:49:23;3.20;99.90
58469;DHT22;44257;44.804;10.220;2023-02-15T05:51:48;3.20;99.90
58469;DHT22;44257;44.804;10.220;2023-02-15T05:54:14;3.20;99.90
58469;DHT22;44257;44.804;10.220;2023-02-15T05:56:40;3.20;99.90
58469;DHT22;44257;44.804;10.220;2023-02-15T05:59:06;3.20;99.90
58469;DHT22;44257;44.804;10.220;2023-02-15T06:01:32;3.20;99.90
58469;DHT22;44257;44.804;10.220;2023-02-15T06:03:58;3.20;99.90
58469;DHT22;44257;44.804;10.220;2023-02-15T06:06:23;3.20;99.90
58469;DHT22;44257;44.804;10.220;2023-02-15T06:08:50;3.20;99.90
58469;DHT22;44257;44.804;10.220;2023-02-15T06:11:16;3.10;99.90
58469;DHT22;44257;44.804;10.220;2023-02-15T06:13:42;3.10;99.90
58469;DHT22;44257;44.804;10.220;2023-02-15T06:16:08;3.10;99.90
58469;DHT22;44257;44.804;10.220;2023-02-15T06:18:34;3.10;99.90
58469;DHT22;44257;44.804;10.220;2023-02-15T06:21:00;3.00;99.90
58469;DHT22;44257;44.804;10.220;2023-02-15T06:23:26;3.10;99.90
58469;DHT22;44257;44.804;10.220;2023-02-15T06:25:52;3.10;99.90
58469;DHT22;44257;44.804;10.220;2023-02-15T06:28:18;3.10;99.90
58469;DHT22;44257;44.804;10.220;2023-02-15T06:30:43;3.20;99.90
58469;DHT22;44257;44.804;10.220;2023-02-15T06:33:10;3.20;99.90
58469;DHT22;44257;44.804;10.220;2023-02-15T06:35:36;3.30;99.90
58469;DHT22;44257;44.804;10.220;2023-02-15T06:38:02;3.40;99.90
58469;DHT22;44257;44.804;10.220;2023-02-15T06:40:28;3.40;99.90
58469;DHT22;44257;44.804;10.220;2023-02-15T06:42:54;3.40;99.90
58469;DHT22;44257;44.804;10.220;2023-02-15T06:45:20;3.50;99.90
58469;DHT22;44257;44.804;10.220;2023-02-15T06:47:48;3.50;99.90
58469;DHT22;44257;44.804;10.220;2023-02-15T06:50:14;3.60;99.90
58469;DHT22;44257;44.804;10.220;2023-02-15T06:52:40;3.60;99.90
58469;DHT22;44257;44.804;10.220;2023-02-15T06:55:06;3.70;99.90
58469;DHT22;44257;44.804;10.220;2023-02-15T06:57:32;3.80;99.90
58469;DHT22;44257;44.804;10.220;2023-02-15T06:59:59;3.90;99.90
58469;DHT22;44257;44.804;10.220;2023-02-15T07:02:25;4.10;99.90
58469;DHT22;44257;44.804;10.220;2023-02-15T07:04:51;4.30;99.90
58469;DHT22;44257;44.804;10.220;2023-02-15T07:07:17;4.50;99.90
58469;DHT22;44257;44.804;10.220;2023-02-15T07:09:43;4.70;99.90
58469;DHT22;44257;44.804;10.220;2023-02-15T07:12:09;5.00;99.90
58469;DHT22;44257;44.804;10.220;2023-02-15T07:14:53;5.20;99.90
58469;DHT22;44257;44.804;10.220;2023-02-15T07:17:19;5.60;99.90
58469;DHT22;44257;44.804;10.220;2023-02-15T07:19:45;5.90;99.90
58469;DHT22;44257;44.804;10.220;2023-02-15T07:22:11;6.10;99.90
58469;DHT22;44257;44.804;10.220;2023-02-15T07:24:37;6.50;99.90
58469;DHT22;44257;44.804;10.220;2023-02-15T07:27:03;6.70;99.90
58469;DHT22;44257;44.804;10.220;2023-02-15T07:29:31;7.00;99.90
58469;DHT22;44257;44.804;10.220;2023-02-15T07:31:57;7.20;99.90
58469;DHT22;44257;44.804;10.220;2023-02-15T07:34:23;7.40;99.90
58469;DHT22;44257;44.804;10.220;2023-02-15T07:36:53;7.40;99.90
58469;DHT22;44257;44.804;10.220;2023-02-15T07:39:19;7.50;99.90
58469;DHT22;44257;44.804;10.220;2023-02-15T07:41:45;7.50;99.90
58469;DHT22;44257;44.804;10.220;2023-02-15T07:44:14;7.40;99.90
58469;DHT22;44257;44.804;10.220;2023-02-15T07:46:41;7.30;99.90
58469;DHT22;44257;44.804;10.220;2023-02-15T07:49:07;7.20;99.90
58469;DHT22;44257;44.804;10.220;2023-02-15T07:51:34;7.10;99.90
58469;DHT22;44257;44.804;10.220;2023-02-15T07:54:00;7.00;99.90
58469;DHT22;44257;44.804;10.220;2023-02-15T07:56:26;7.00;99.90
58469;DHT22;44257;44.804;10.220;2023-02-15T07:58:55;6.90;99.90
58469;DHT22;44257;44.804;10.220;2023-02-15T08:01:26;6.80;99.90
58469;DHT22;44257;44.804;10.220;2023-02-15T08:03:54;6.80;99.90
58469;DHT22;44257;44.804;10.220;2023-02-15T08:06:24;6.80;99.90
58469;DHT22;44257;44.804;10.220;2023-02-15T08:08:50;6.90;99.90
58469;DHT22;44257;44.804;10.220;2023-02-15T08:11:28;7.00;99.90
58469;DHT22;44257;44.804;10.220;2023-02-15T08:13:59;7.00;99.90
58469;DHT22;44257;44.804;10.220;2023-02-15T08:16:48;7.20;99.90
58469;DHT22;44257;44.804;10.220;2023-02-15T08:19:22;7.30;99.90
58469;DHT22;44257;44.804;10.220;2023-02-15T08:21:53;7.40;99.90
58469;DHT22;44257;44.804;10.220;2023-02-15T08:24:20;7.50;99.90
58469;DHT22;44257;44.804;10.220;2023-02-15T08:26:47;7.70;99.90
58469;DHT22;44257;44.804;10.220;2023-02-15T08:29:15;7.90;99.90
58469;DHT22;44257;44.804;10.220;2023-02-15T08:31:41;8.00;99.90
58469;DHT22;44257;44.804;10.220;2023-02-15T08:34:13;8.10;99.90
58469;DHT22;44257;44.804;10.220;2023-02-15T08:36:39;8.30;99.90
58469;DHT22;44257;44.804;10.220;2023-02-15T08:39:06;8.30;99.90
58469;DHT22;44257;44.804;10.220;2023-02-15T08:41:36;8.40;99.90
58469;DHT22;44257;44.804;10.220;2023-02-15T08:44:05;8.40;99.90
58469;DHT22;44257;44.804;10.220;2023-02-15T08:46:37;8.50;99.90
58469;DHT22;44257;44.804;10.220;2023-02-15T08:49:36;8.50;99.90
58469;DHT22;44257;44.804;10.220;2023-02-15T08:52:59;8.50;99.90
58469;DHT22;44257;44.804;10.220;2023-02-15T08:56:11;8.50;99.90
58469;DHT22;44257;44.804;10.220;2023-02-15T08:59:15;8.70;99.90
58469;DHT22;44257;44.804;10.220;2023-02-15T09:06:08;8.90;99.90
58469;DHT22;44257;44.804;10.220;2023-02-15T09:09:16;9.20;99.90
58469;DHT22;44257;44.804;10.220;2023-02-15T09:11:46;9.40;99.90
58469;DHT22;44257;44.804;10.220;2023-02-15T09:14:17;9.50;99.90
58469;DHT22;44257;44.804;10.220;2023-02-15T09:16:47;9.50;99.90
58469;DHT22;44257;44.804;10.220;2023-02-15T09:19:18;9.60;99.90
58469;DHT22;44257;44.804;10.220;2023-02-15T09:21:45;9.60;99.90
58469;DHT22;44257;44.804;10.220;2023-02-15T09:24:13;9.60;99.90
58469;DHT22;44257;44.804;10.220;2023-02-15T09:26:42;9.60;99.90
58469;DHT22;44257;44.804;10.220;2023-02-15T09:29:09;9.60;99.90
58469;DHT22;44257;44.804;10.220;2023-02-15T09:31:40;9.70;99.90
58469;DHT22;44257;44.804;10.220;2023-02-15T09:34:10;9.80;99.90
58469;DHT22;44257;44.804;10.220;2023-02-15T09:36:38;10.00;99.90
58469;DHT22;44257;44.804;10.220;2023-02-15T09:39:22;10.10;99.90
58469;DHT22;44257;44.804;10.220;2023-02-15T09:45:00;10.40;99.90
58469;DHT22;44257;44.804;10.220;2023-02-15T09:56:45;10.80;99.90
58469;DHT22;44257;44.804;10.220;2023-02-15T09:59:51;10.90;99.90
58469;DHT22;44257;44.804;10.220;2023-02-15T10:05:40;11.00;99.90
58469;DHT22;44257;44.804;10.220;2023-02-15T10:11:11;11.00;99.90
58469;DHT22;44257;44.804;10.220;2023-02-15T10:17:06;11.30;99.90
58469;DHT22;44257;44.804;10.220;2023-02-15T10:25:25;11.60;99.90
58469;DHT22;44257;44.804;10.220;2023-02-15T10:28:02;11.80;99.90
58469;DHT22;44257;44.804;10.220;2023-02-15T10:54:09;12.90;99.90
58469;DHT22;44257;44.804;10.220;2023-02-15T10:59:46;13.30;99.90
58469;DHT22;44257;44.804;10.220;2023-02-15T11:08:04;13.50;99.90
58469;DHT22;44257;44.804;10.220;2023-02-15T11:10:51;13.60;99.90
58469;DHT22;44257;44.804;10.220;2023-02-15T11:13:20;13.70;99.90
58469;DHT22;44257;44.804;10.220;2023-02-15T11:15:55;13.70;99.90
58469;DHT22;44257;44.804;10.220;2023-02-15T11:23:46;14.20;99.90
58469;DHT22;44257;44.804;10.220;2023-02-15T11:26:27;14.50;99.90
58469;DHT22;44257;44.804;10.220;2023-02-15T11:28:58;14.70;99.90
58469;DHT22;44257;44.804;10.220;2023-02-15T11:31:26;14.80;99.40
58469;DHT22;44257;44.804;10.220;2023-02-15T11:34:05;14.90;99.00
58469;DHT22;44257;44.804;10.220;2023-02-15T11:36:40;14.90;98.60
58469;DHT22;44257;44.804;10.220;2023-02-15T11:39:15;15.00;98.10
58469;DHT22;44257;44.804;10.220;2023-02-15T11:41:46;14.90;97.80
58469;DHT22;44257;44.804;10.220;2023-02-15T11:45:07;14.90;98.10
58469;DHT22;44257;44.804;10.220;2023-02-15T11:47:25;14.80;98.30
58469;DHT22;44257;44.804;10.220;2023-02-15T11:49:51;14.80;98.50
58469;DHT22;44257;44.804;10.220;2023-02-15T11:52:18;14.80;98.00
58469;DHT22;44257;44.804;10.220;2023-02-15T11:54:49;14.90;98.70
58469;DHT22;44257;44.804;10.220;2023-02-15T11:57:28;15.10;99.00
58469;DHT22;44257;44.804;10.220;2023-02-15T12:00:15;15.20;98.40
58469;DHT22;44257;44.804;10.220;2023-02-15T12:02:46;15.30;97.60
58469;DHT22;44257;44.804;10.220;2023-02-15T12:05:17;15.40;98.30
58469;DHT22;44257;44.804;10.220;2023-02-15T12:07:49;15.50;97.00
58469;DHT22;44257;44.804;10.220;2023-02-15T12:10:30;15.60;97.60
58469;DHT22;44257;44.804;10.220;2023-02-15T12:13:15;15.60;96.70
58469;DHT22;44257;44.804;10.220;2023-02-15T12:15:44;15.50;96.90
58469;DHT22;44257;44.804;10.220;2023-02-15T12:18:42;15.50;96.10
58469;DHT22;44257;44.804;10.220;2023-02-15T12:21:26;15.50;97.00
58469;DHT22;44257;44.804;10.220;2023-02-15T12:24:25;15.60;97.20
58469;DHT22;44257;44.804;10.220;2023-02-15T12:26:58;15.80;96.00
58469;DHT22;44257;44.804;10.220;2023-02-15T12:29:28;15.90;95.20
58469;DHT22;44257;44.804;10.220;2023-02-15T12:31:57;15.90;95.40
58469;DHT22;44257;44.804;10.220;2023-02-15T12:34:29;15.90;95.70
58469;DHT22;44257;44.804;10.220;2023-02-15T12:37:00;15.90;95.20
58469;DHT22;44257;44.804;10.220;2023-02-15T12:39:32;16.00;95.10
58469;DHT22;44257;44.804;10.220;2023-02-15T12:42:04;16.00;95.20
58469;DHT22;44257;44.804;10.220;2023-02-15T12:44:33;15.90;95.30
58469;DHT22;44257;44.804;10.220;2023-02-15T12:49:42;16.10;95.10
58469;DHT22;44257;44.804;10.220;2023-02-15T12:54:46;16.30;95.90
58469;DHT22;44257;44.804;10.220;2023-02-15T12:57:32;16.50;94.50
58469;DHT22;44257;44.804;10.220;2023-02-15T13:00:26;16.50;94.70
58469;DHT22;44257;44.804;10.220;2023-02-15T13:02:55;16.40;94.90
58469;DHT22;44257;44.804;10.220;2023-02-15T13:05:33;16.30;95.10
58469;DHT22;44257;44.804;10.220;2023-02-15T13:08:12;16.30;95.60
58469;DHT22;44257;44.804;10.220;2023-02-15T13:10:57;16.40;93.30
58469;DHT22;44257;44.804;10.220;2023-02-15T13:13:29;16.50;94.00
58469;DHT22;44257;44.804;10.220;2023-02-15T13:15:59;16.60;92.30
58469;DHT22;44257;44.804;10.220;2023-02-15T13:18:32;16.70;92.00
58469;DHT22;44257;44.804;10.220;2023-02-15T13:21:06;16.80;92.50
58469;DHT22;44257;44.804;10.220;2023-02-15T13:23:35;16.80;93.00
58469;DHT22;44257;44.804;10.220;2023-02-15T13:26:05;16.70;93.30
58469;DHT22;44257;44.804;10.220;2023-02-15T13:29:05;16.60;93.20
58469;DHT22;44257;44.804;10.220;2023-02-15T13:31:28;16.70;93.40
58469;DHT22;44257;44.804;10.220;2023-02-15T13:34:14;17.00;92.40
58469;DHT22;44257;44.804;10.220;2023-02-15T13:39:47;16.90;92.30
58469;DHT22;44257;44.804;10.220;2023-02-15T13:42:33;17.00;92.50
58469;DHT22;44257;44.804;10.220;2023-02-15T13:45:45;17.20;93.20
58469;DHT22;44257;44.804;10.220;2023-02-15T13:48:30;17.30;90.70
58469;DHT22;44257;44.804;10.220;2023-02-15T13:51:15;17.40;90.10
58469;DHT22;44257;44.804;10.220;2023-02-15T14:07:16;18.00;90.70
58469;DHT22;44257;44.804;10.220;2023-02-15T14:18:45;18.30;90.10
58469;DHT22;44257;44.804;10.220;2023-02-15T14:21:21;18.40;90.10
58469;DHT22;44257;44.804;10.220;2023-02-15T14:31:47;18.50;88.30
58469;DHT22;44257;44.804;10.220;2023-02-15T14:34:53;18.50;89.40
58469;DHT22;44257;44.804;10.220;2023-02-15T14:37:43;18.50;87.60
58469;DHT22;44257;44.804;10.220;2023-02-15T14:40:33;18.50;88.00
58469;DHT22;44257;44.804;10.220;2023-02-15T14:43:27;18.60;86.50
58469;DHT22;44257;44.804;10.220;2023-02-15T14:48:49;18.50;87.40
58469;DHT22;44257;44.804;10.220;2023-02-15T14:51:53;18.50;87.70
58469;DHT22;44257;44.804;10.220;2023-02-15T15:02:52;18.60;86.10
58469;DHT22;44257;44.804;10.220;2023-02-15T15:05:34;18.50;86.10
58469;DHT22;44257;44.804;10.220;2023-02-15T15:08:02;18.40;86.40
58469;DHT22;44257;44.804;10.220;2023-02-15T15:10:41;18.30;86.10
58469;DHT22;44257;44.804;10.220;2023-02-15T15:22:28;18.00;85.80
58469;DHT22;44257;44.804;10.220;2023-02-15T15:27:51;17.80;86.70
58469;DHT22;44257;44.804;10.220;2023-02-15T15:35:24;17.50;87.00
58469;DHT22;44257;44.804;10.220;2023-02-15T15:38:25;17.40;87.60
58469;DHT22;44257;44.804;10.220;2023-02-15T15:41:17;17.30;87.80
58469;DHT22;44257;44.804;10.220;2023-02-15T15:49:31;16.80;87.60
58469;DHT22;44257;44.804;10.220;2023-02-15T15:52:03;16.60;88.40
58469;DHT22;44257;44.804;10.220;2023-02-15T15:54:38;16.50;89.10
58469;DHT22;44257;44.804;10.220;2023-02-15T15:57:28;16.40;88.70
58469;DHT22;44257;44.804;10.220;2023-02-15T16:02:57;16.00;90.00
58469;DHT22;44257;44.804;10.220;2023-02-15T16:05:26;15.90;90.10
58469;DHT22;44257;44.804;10.220;2023-02-15T16:07:52;15.70;90.30
58469;DHT22;44257;44.804;10.220;2023-02-15T16:10:28;15.60;90.60
58469;DHT22;44257;44.804;10.220;2023-02-15T16:13:47;15.40;90.80
58469;DHT22;44257;44.804;10.220;2023-02-15T16:19:40;15.10;91.00
58469;DHT22;44257;44.804;10.220;2023-02-15T16:22:13;14.90;91.80
58469;DHT22;44257;44.804;10.220;2023-02-15T16:24:55;14.70;92.00
58469;DHT22;44257;44.804;10.220;2023-02-15T16:27:35;14.50;92.10
58469;DHT22;44257;44.804;10.220;2023-02-15T16:32:46;14.20;92.80
58469;DHT22;44257;44.804;10.220;2023-02-15T16:35:17;14.10;93.30
58469;DHT22;44257;44.804;10.220;2023-02-15T16:37:44;13.80;94.10
58469;DHT22;44257;44.804;10.220;2023-02-15T16:42:54;13.20;95.30
58469;DHT22;44257;44.804;10.220;2023-02-15T16:45:24;12.90;95.50
58469;DHT22;44257;44.804;10.220;2023-02-15T16:47:56;12.70;95.80
58469;DHT22;44257;44.804;10.220;2023-02-15T16:50:56;12.50;95.90
58469;DHT22;44257;44.804;10.220;2023-02-15T16:53:43;12.30;96.00
58469;DHT22;44257;44.804;10.220;2023-02-15T16:56:14;12.20;96.20
58469;DHT22;44257;44.804;10.220;2023-02-15T16:59:02;12.00;96.40
58469;DHT22;44257;44.804;10.220;2023-02-15T17:08:22;11.30;97.30
58469;DHT22;44257;44.804;10.220;2023-02-15T17:13:27;11.00;98.20
58469;DHT22;44257;44.804;10.220;2023-02-15T17:16:45;10.80;98.20
58469;DHT22;44257;44.804;10.220;2023-02-15T17:19:16;10.50;98.30
58469;DHT22;44257;44.804;10.220;2023-02-15T17:21:49;10.20;98.80
58469;DHT22;44257;44.804;10.220;2023-02-15T17:32:04;9.40;99.90
58469;DHT22;44257;44.804;10.220;2023-02-15T17:35:31;9.20;99.90
58469;DHT22;44257;44.804;10.220;2023-02-15T17:38:13;9.10;99.90
58469;DHT22;44257;44.804;10.220;2023-02-15T17:40:41;9.00;99.90
58469;DHT22;44257;44.804;10.220;2023-02-15T17:43:07;8.90;99.90
58469;DHT22;44257;44.804;10.220;2023-02-15T17:46:07;8.70;99.90
58469;DHT22;44257;44.804;10.220;2023-02-15T17:48:36;8.50;99.90
58469;DHT22;44257;44.804;10.220;2023-02-15T17:51:04;8.50;99.90
58469;DHT22;44257;44.804;10.220;2023-02-15T17:57:00;8.30;99.90
58469;DHT22;44257;44.804;10.220;2023-02-15T17:59:30;8.10;99.90
58469;DHT22;44257;44.804;10.220;2023-02-15T18:01:56;7.90;99.90
58469;DHT22;44257;44.804;10.220;2023-02-15T18:08:15;7.50;99.90
58469;DHT22;44257;44.804;10.220;2023-02-15T18:11:00;7.30;99.90
58469;DHT22;44257;44.804;10.220;2023-02-15T18:13:45;7.30;99.90
58469;DHT22;44257;44.804;10.220;2023-02-15T18:16:14;7.30;99.90
58469;DHT22;44257;44.804;10.220;2023-02-15T18:18:41;7.40;99.90
58469;DHT22;44257;44.804;10.220;2023-02-15T18:21:07;7.40;99.90
58469;DHT22;44257;44.804;10.220;2023-02-15T18:23:34;7.30;99.90
58469;DHT22;44257;44.804;10.220;2023-02-15T18:26:00;7.10;99.90
58469;DHT22;44257;44.804;10.220;2023-02-15T18:28:26;6.80;99.90
58469;DHT22;44257;44.804;10.220;2023-02-15T18:30:52;6.60;99.90
58469;DHT22;44257;44.804;10.220;2023-02-15T18:33:34;6.40;99.90
58469;DHT22;44257;44.804;10.220;2023-02-15T18:36:04;6.20;99.90
58469;DHT22;44257;44.804;10.220;2023-02-15T18:38:31;6.10;99.90
58469;DHT22;44257;44.804;10.220;2023-02-15T18:40:57;6.00;99.90
58469;DHT22;44257;44.804;10.220;2023-02-15T18:43:23;6.00;99.90
58469;DHT22;44257;44.804;10.220;2023-02-15T18:45:49;5.80;99.90
58469;DHT22;44257;44.804;10.220;2023-02-15T18:48:15;5.80;99.90
58469;DHT22;44257;44.804;10.220;2023-02-15T18:50:41;5.60;99.90
58469;DHT22;44257;44.804;10.220;2023-02-15T18:53:15;5.50;99.90
58469;DHT22;44257;44.804;10.220;2023-02-15T18:55:42;5.50;99.90
58469;DHT22;44257;44.804;10.220;2023-02-15T18:58:17;5.50;99.90
58469;DHT22;44257;44.804;10.220;2023-02-15T19:00:44;5.50;99.90
58469;DHT22;44257;44.804;10.220;2023-02-15T19:03:14;5.40;99.90
58469;DHT22;44257;44.804;10.220;2023-02-15T19:05:44;5.30;99.90
58469;DHT22;44257;44.804;10.220;2023-02-15T19:08:21;5.20;99.90
58469;DHT22;44257;44.804;10.220;2023-02-15T19:10:50;5.20;99.90
58469;DHT22;44257;44.804;10.220;2023-02-15T19:13:16;5.30;99.90
58469;DHT22;44257;44.804;10.220;2023-02-15T19:15:42;5.50;99.90
58469;DHT22;44257;44.804;10.220;2023-02-15T19:18:09;5.60;99.90
58469;DHT22;44257;44.804;10.220;2023-02-15T19:20:51;5.70;99.90
58469;DHT22;44257;44.804;10.220;2023-02-15T19:23:21;5.70;99.90
58469;DHT22;44257;44.804;10.220;2023-02-15T19:25:49;5.70;99.90
58469;DHT22;44257;44.804;10.220;2023-02-15T19:28:18;5.60;99.90
58469;DHT22;44257;44.804;10.220;2023-02-15T19:30:44;5.60;99.90
58469;DHT22;44257;44.804;10.220;2023-02-15T19:33:20;5.70;99.90
58469;DHT22;44257;44.804;10.220;2023-02-15T19:35:51;5.90;99.90